sensor_id;sensor_type;location;lat;lon;timestamp;P1;durP1;ratioP1;P2;durP2;ratioP2
79728;SDS011;69218;52.132;5.418;2023-04-29T00:00:57;27.40;;;9.82;;
79728;SDS011;69218;52.132;5.418;2023-04-29T00:03:24;25.25;;;9.80;;
79728;SDS011;69218;52.132;5.418;2023-04-29T00:05:54;24.30;;;9.07;;
79728;SDS011;69218;52.132;5.418;2023-04-29T00:08:21;23.67;;;9.55;;
79728;SDS011;69218;52.132;5.418;2023-04-29T00:10:48;25.88;;;9.52;;
79728;SDS011;69218;52.132;5.418;2023-04-29T00:13:15;24.30;;;9.43;;
79728;SDS011;69218;52.132;5.418;2023-04-29T00:15:41;22.70;;;10.38;;
79728;SDS011;69218;52.132;5.418;2023-04-29T00:18:08;25.35;;;10.07;;
79728;SDS011;69218;52.132;5.418;2023-04-29T00:20:35;26.58;;;11.18;;
79728;SDS011;69218;52.132;5.418;2023-04-29T00:23:05;24.77;;;10.13;;
79728;SDS011;69218;52.132;5.418;2023-04-29T00:25:32;22.15;;;9.82;;
79728;SDS011;69218;52.132;5.418;2023-04-29T00:27:59;23.13;;;9.80;;
79728;SDS011;69218;52.132;5.418;2023-04-29T00:30:27;24.17;;;10.27;;
79728;SDS011;69218;52.132;5.418;2023-04-29T00:32:54;26.17;;;10.73;;
79728;SDS011;69218;52.132;5.418;2023-04-29T00:35:21;23.13;;;9.93;;
79728;SDS011;69218;52.132;5.418;2023-04-29T00:37:47;23.95;;;10.32;;
79728;SDS011;69218;52.132;5.418;2023-04-29T00:40:14;24.52;;;9.48;;
79728;SDS011;69218;52.132;5.418;2023-04-29T00:42:41;24.00;;;9.93;;
79728;SDS011;69218;52.132;5.418;2023-04-29T00:45:08;24.33;;;9.68;;
79728;SDS011;69218;52.132;5.418;2023-04-29T00:47:37;24.50;;;9.50;;
79728;SDS011;69218;52.132;5.418;2023-04-29T00:50:04;22.17;;;9.75;;
79728;SDS011;69218;52.132;5.418;2023-04-29T00:52:31;22.48;;;9.30;;
79728;SDS011;69218;52.132;5.418;2023-04-29T00:54:58;26.95;;;10.05;;
79728;SDS011;69218;52.132;5.418;2023-04-29T00:57:25;24.38;;;9.63;;
79728;SDS011;69218;52.132;5.418;2023-04-29T00:59:55;27.55;;;9.73;;
79728;SDS011;69218;52.132;5.418;2023-04-29T01:02:23;23.33;;;9.27;;
79728;SDS011;69218;52.132;5.418;2023-04-29T01:04:51;20.95;;;8.35;;
79728;SDS011;69218;52.132;5.418;2023-04-29T01:12:34;22.92;;;9.60;;
79728;SDS011;69218;52.132;5.418;2023-04-29T01:17:58;21.90;;;9.15;;
79728;SDS011;69218;52.132;5.418;2023-04-29T01:20:29;24.02;;;9.13;;
79728;SDS011;69218;52.132;5.418;2023-04-29T01:22:57;21.27;;;8.95;;
79728;SDS011;69218;52.132;5.418;2023-04-29T01:25:23;24.38;;;8.88;;
79728;SDS011;69218;52.132;5.418;2023-04-29T01:27:58;20.02;;;8.82;;
79728;SDS011;69218;52.132;5.418;2023-04-29T01:33:33;20.02;;;9.45;;
79728;SDS011;69218;52.132;5.418;2023-04-29T01:37:04;23.05;;;9.65;;
79728;SDS011;69218;52.132;5.418;2023-04-29T01:39:08;23.92;;;8.90;;
79728;SDS011;69218;52.132;5.418;2023-04-29T01:41:42;21.38;;;9.07;;
79728;SDS011;69218;52.132;5.418;2023-04-29T01:44:15;21.27;;;9.55;;
79728;SDS011;69218;52.132;5.418;2023-04-29T01:49:22;21.30;;;7.85;;
79728;SDS011;69218;52.132;5.418;2023-04-29T01:51:49;19.50;;;8.48;;
79728;SDS011;69218;52.132;5.418;2023-04-29T01:54:16;22.95;;;9.13;;
79728;SDS011;69218;52.132;5.418;2023-04-29T01:56:43;21.60;;;8.93;;
79728;SDS011;69218;52.132;5.418;2023-04-29T01:59:09;22.00;;;9.25;;
79728;SDS011;69218;52.132;5.418;2023-04-29T02:01:37;21.48;;;8.68;;
79728;SDS011;69218;52.132;5.418;2023-04-29T02:04:03;21.95;;;10.20;;
79728;SDS011;69218;52.132;5.418;2023-04-29T02:06:30;18.50;;;8.65;;
79728;SDS011;69218;52.132;5.418;2023-04-29T02:08:57;19.33;;;9.00;;
79728;SDS011;69218;52.132;5.418;2023-04-29T02:11:23;19.52;;;8.25;;
79728;SDS011;69218;52.132;5.418;2023-04-29T02:13:50;22.60;;;9.20;;
79728;SDS011;69218;52.132;5.418;2023-04-29T02:16:16;24.40;;;9.93;;
79728;SDS011;69218;52.132;5.418;2023-04-29T02:18:44;20.42;;;9.20;;
79728;SDS011;69218;52.132;5.418;2023-04-29T02:21:11;20.88;;;8.57;;
79728;SDS011;69218;52.132;5.418;2023-04-29T02:23:37;21.02;;;8.40;;
79728;SDS011;69218;52.132;5.418;2023-04-29T02:26:04;20.10;;;8.60;;
79728;SDS011;69218;52.132;5.418;2023-04-29T02:28:32;18.10;;;8.15;;
79728;SDS011;69218;52.132;5.418;2023-04-29T02:30:59;18.55;;;8.82;;
79728;SDS011;69218;52.132;5.418;2023-04-29T02:33:25;16.42;;;7.70;;
79728;SDS011;69218;52.132;5.418;2023-04-29T02:35:52;17.98;;;8.15;;
79728;SDS011;69218;52.132;5.418;2023-04-29T02:38:19;16.45;;;7.10;;
79728;SDS011;69218;52.132;5.418;2023-04-29T02:40:46;17.50;;;7.60;;
79728;SDS011;69218;52.132;5.418;2023-04-29T02:43:12;14.73;;;7.28;;
79728;SDS011;69218;52.132;5.418;2023-04-29T02:45:39;16.73;;;7.03;;
79728;SDS011;69218;52.132;5.418;2023-04-29T02:48:06;17.75;;;8.20;;
79728;SDS011;69218;52.132;5.418;2023-04-29T02:50:33;17.58;;;7.28;;
79728;SDS011;69218;52.132;5.418;2023-04-29T02:52:59;14.70;;;7.30;;
79728;SDS011;69218;52.132;5.418;2023-04-29T02:55:25;17.60;;;7.28;;
79728;SDS011;69218;52.132;5.418;2023-04-29T02:57:52;13.75;;;7.13;;
79728;SDS011;69218;52.132;5.418;2023-04-29T03:00:18;19.90;;;7.75;;
79728;SDS011;69218;52.132;5.418;2023-04-29T03:02:46;19.20;;;7.30;;
79728;SDS011;69218;52.132;5.418;2023-04-29T03:05:12;19.55;;;7.05;;
79728;SDS011;69218;52.132;5.418;2023-04-29T03:07:39;20.08;;;8.45;;
79728;SDS011;69218;52.132;5.418;2023-04-29T03:10:05;13.02;;;6.65;;
79728;SDS011;69218;52.132;5.418;2023-04-29T03:12:32;18.45;;;6.88;;
79728;SDS011;69218;52.132;5.418;2023-04-29T03:14:59;15.50;;;7.70;;
79728;SDS011;69218;52.132;5.418;2023-04-29T03:17:26;20.90;;;7.85;;
79728;SDS011;69218;52.132;5.418;2023-04-29T03:19:52;17.40;;;7.68;;
79728;SDS011;69218;52.132;5.418;2023-04-29T03:22:19;18.23;;;7.57;;
79728;SDS011;69218;52.132;5.418;2023-04-29T03:24:46;17.48;;;7.38;;
79728;SDS011;69218;52.132;5.418;2023-04-29T03:27:12;17.67;;;7.57;;
79728;SDS011;69218;52.132;5.418;2023-04-29T03:29:39;17.73;;;7.65;;
79728;SDS011;69218;52.132;5.418;2023-04-29T03:32:05;17.55;;;7.25;;
79728;SDS011;69218;52.132;5.418;2023-04-29T03:34:32;15.73;;;7.20;;
79728;SDS011;69218;52.132;5.418;2023-04-29T03:36:59;17.30;;;7.35;;
79728;SDS011;69218;52.132;5.418;2023-04-29T03:39:26;17.23;;;7.50;;
79728;SDS011;69218;52.132;5.418;2023-04-29T03:41:57;15.88;;;7.85;;
79728;SDS011;69218;52.132;5.418;2023-04-29T03:44:24;16.70;;;7.60;;
79728;SDS011;69218;52.132;5.418;2023-04-29T03:46:51;15.60;;;7.80;;
79728;SDS011;69218;52.132;5.418;2023-04-29T03:49:17;18.33;;;8.20;;
79728;SDS011;69218;52.132;5.418;2023-04-29T03:51:44;18.80;;;8.60;;
79728;SDS011;69218;52.132;5.418;2023-04-29T03:54:11;16.50;;;7.97;;
79728;SDS011;69218;52.132;5.418;2023-04-29T03:56:38;16.77;;;8.18;;
79728;SDS011;69218;52.132;5.418;2023-04-29T03:59:04;16.88;;;7.70;;
79728;SDS011;69218;52.132;5.418;2023-04-29T04:01:31;15.48;;;7.13;;
79728;SDS011;69218;52.132;5.418;2023-04-29T04:03:58;17.85;;;8.27;;
79728;SDS011;69218;52.132;5.418;2023-04-29T04:06:25;14.90;;;7.53;;
79728;SDS011;69218;52.132;5.418;2023-04-29T04:08:51;16.95;;;7.95;;
79728;SDS011;69218;52.132;5.418;2023-04-29T04:11:18;18.10;;;7.82;;
79728;SDS011;69218;52.132;5.418;2023-04-29T04:13:45;17.42;;;7.93;;
79728;SDS011;69218;52.132;5.418;2023-04-29T04:16:11;16.05;;;7.03;;
79728;SDS011;69218;52.132;5.418;2023-04-29T04:18:38;15.02;;;7.43;;
79728;SDS011;69218;52.132;5.418;2023-04-29T04:21:05;17.52;;;7.88;;
79728;SDS011;69218;52.132;5.418;2023-04-29T04:23:32;17.42;;;7.22;;
79728;SDS011;69218;52.132;5.418;2023-04-29T04:25:58;16.30;;;7.57;;
79728;SDS011;69218;52.132;5.418;2023-04-29T04:28:25;18.20;;;7.38;;
79728;SDS011;69218;52.132;5.418;2023-04-29T04:30:51;15.57;;;7.65;;
79728;SDS011;69218;52.132;5.418;2023-04-29T04:33:18;14.90;;;7.00;;
79728;SDS011;69218;52.132;5.418;2023-04-29T04:35:44;15.15;;;7.22;;
79728;SDS011;69218;52.132;5.418;2023-04-29T04:38:11;14.57;;;6.85;;
79728;SDS011;69218;52.132;5.418;2023-04-29T04:40:40;15.50;;;6.70;;
79728;SDS011;69218;52.132;5.418;2023-04-29T04:43:07;12.80;;;6.55;;
79728;SDS011;69218;52.132;5.418;2023-04-29T04:45:34;14.57;;;7.07;;
79728;SDS011;69218;52.132;5.418;2023-04-29T04:48:01;12.75;;;6.85;;
79728;SDS011;69218;52.132;5.418;2023-04-29T04:50:28;16.42;;;6.75;;
79728;SDS011;69218;52.132;5.418;2023-04-29T04:52:55;14.75;;;7.40;;
79728;SDS011;69218;52.132;5.418;2023-04-29T04:55:22;18.77;;;7.95;;
79728;SDS011;69218;52.132;5.418;2023-04-29T04:57:49;19.48;;;7.40;;
79728;SDS011;69218;52.132;5.418;2023-04-29T05:00:16;14.50;;;7.15;;
79728;SDS011;69218;52.132;5.418;2023-04-29T05:02:43;17.77;;;7.03;;
79728;SDS011;69218;52.132;5.418;2023-04-29T05:05:09;16.63;;;7.38;;
79728;SDS011;69218;52.132;5.418;2023-04-29T05:07:36;14.63;;;7.07;;
79728;SDS011;69218;52.132;5.418;2023-04-29T05:10:02;15.98;;;6.95;;
79728;SDS011;69218;52.132;5.418;2023-04-29T05:12:29;14.77;;;7.03;;
79728;SDS011;69218;52.132;5.418;2023-04-29T05:14:56;13.57;;;6.57;;
79728;SDS011;69218;52.132;5.418;2023-04-29T05:17:23;15.95;;;7.15;;
79728;SDS011;69218;52.132;5.418;2023-04-29T05:19:50;14.52;;;6.55;;
79728;SDS011;69218;52.132;5.418;2023-04-29T05:22:16;13.10;;;6.15;;
79728;SDS011;69218;52.132;5.418;2023-04-29T05:24:43;13.60;;;6.85;;
79728;SDS011;69218;52.132;5.418;2023-04-29T05:27:09;17.15;;;6.75;;
79728;SDS011;69218;52.132;5.418;2023-04-29T05:29:36;12.38;;;6.38;;
79728;SDS011;69218;52.132;5.418;2023-04-29T05:32:03;12.85;;;6.95;;
79728;SDS011;69218;52.132;5.418;2023-04-29T05:34:29;14.43;;;6.90;;
79728;SDS011;69218;52.132;5.418;2023-04-29T05:36:56;10.88;;;6.00;;
79728;SDS011;69218;52.132;5.418;2023-04-29T05:39:23;12.52;;;6.63;;
79728;SDS011;69218;52.132;5.418;2023-04-29T05:41:49;14.45;;;6.60;;
79728;SDS011;69218;52.132;5.418;2023-04-29T05:44:16;14.50;;;6.47;;
79728;SDS011;69218;52.132;5.418;2023-04-29T05:46:42;17.27;;;7.18;;
79728;SDS011;69218;52.132;5.418;2023-04-29T05:49:09;13.43;;;6.63;;
79728;SDS011;69218;52.132;5.418;2023-04-29T05:51:35;13.23;;;6.80;;
79728;SDS011;69218;52.132;5.418;2023-04-29T05:54:02;15.75;;;6.95;;
79728;SDS011;69218;52.132;5.418;2023-04-29T05:56:28;15.10;;;6.78;;
79728;SDS011;69218;52.132;5.418;2023-04-29T05:58:56;15.93;;;6.82;;
79728;SDS011;69218;52.132;5.418;2023-04-29T06:01:22;13.13;;;6.90;;
79728;SDS011;69218;52.132;5.418;2023-04-29T06:03:48;13.07;;;7.25;;
79728;SDS011;69218;52.132;5.418;2023-04-29T06:06:15;16.52;;;7.05;;
79728;SDS011;69218;52.132;5.418;2023-04-29T06:08:43;18.42;;;7.45;;
79728;SDS011;69218;52.132;5.418;2023-04-29T06:11:09;15.32;;;7.07;;
79728;SDS011;69218;52.132;5.418;2023-04-29T06:13:36;14.23;;;6.85;;
79728;SDS011;69218;52.132;5.418;2023-04-29T06:16:02;15.70;;;6.95;;
79728;SDS011;69218;52.132;5.418;2023-04-29T06:18:29;16.33;;;7.45;;
79728;SDS011;69218;52.132;5.418;2023-04-29T06:20:55;16.52;;;7.32;;
79728;SDS011;69218;52.132;5.418;2023-04-29T06:23:22;14.68;;;7.32;;
79728;SDS011;69218;52.132;5.418;2023-04-29T06:25:48;17.83;;;6.80;;
79728;SDS011;69218;52.132;5.418;2023-04-29T06:28:17;17.45;;;7.03;;
79728;SDS011;69218;52.132;5.418;2023-04-29T06:30:44;16.63;;;7.00;;
79728;SDS011;69218;52.132;5.418;2023-04-29T06:33:11;15.88;;;7.13;;
79728;SDS011;69218;52.132;5.418;2023-04-29T06:35:38;13.98;;;6.85;;
79728;SDS011;69218;52.132;5.418;2023-04-29T06:38:06;16.10;;;6.80;;
79728;SDS011;69218;52.132;5.418;2023-04-29T06:40:36;16.17;;;7.18;;
79728;SDS011;69218;52.132;5.418;2023-04-29T06:43:02;16.88;;;7.07;;
79728;SDS011;69218;52.132;5.418;2023-04-29T06:45:29;14.80;;;6.82;;
79728;SDS011;69218;52.132;5.418;2023-04-29T06:47:57;16.48;;;7.57;;
79728;SDS011;69218;52.132;5.418;2023-04-29T06:50:27;12.52;;;5.82;;
79728;SDS011;69218;52.132;5.418;2023-04-29T06:52:53;16.48;;;6.82;;
79728;SDS011;69218;52.132;5.418;2023-04-29T06:55:20;15.32;;;6.93;;
79728;SDS011;69218;52.132;5.418;2023-04-29T06:57:46;15.57;;;6.78;;
79728;SDS011;69218;52.132;5.418;2023-04-29T07:00:13;18.00;;;7.40;;
79728;SDS011;69218;52.132;5.418;2023-04-29T07:02:41;15.93;;;6.78;;
79728;SDS011;69218;52.132;5.418;2023-04-29T07:05:07;13.85;;;6.82;;
79728;SDS011;69218;52.132;5.418;2023-04-29T07:07:34;16.00;;;6.93;;
79728;SDS011;69218;52.132;5.418;2023-04-29T07:10:00;11.82;;;6.03;;
79728;SDS011;69218;52.132;5.418;2023-04-29T07:12:27;13.93;;;6.28;;
79728;SDS011;69218;52.132;5.418;2023-04-29T07:14:53;12.65;;;6.80;;
79728;SDS011;69218;52.132;5.418;2023-04-29T07:17:20;14.60;;;6.60;;
79728;SDS011;69218;52.132;5.418;2023-04-29T07:19:46;19.40;;;7.15;;
79728;SDS011;69218;52.132;5.418;2023-04-29T07:22:13;13.80;;;6.18;;
79728;SDS011;69218;52.132;5.418;2023-04-29T07:24:39;12.00;;;6.55;;
79728;SDS011;69218;52.132;5.418;2023-04-29T07:27:06;14.05;;;6.32;;
79728;SDS011;69218;52.132;5.418;2023-04-29T07:29:33;15.40;;;6.63;;
79728;SDS011;69218;52.132;5.418;2023-04-29T07:31:59;12.80;;;6.07;;
79728;SDS011;69218;52.132;5.418;2023-04-29T07:34:26;13.02;;;6.47;;
79728;SDS011;69218;52.132;5.418;2023-04-29T07:36:52;16.42;;;5.85;;
79728;SDS011;69218;52.132;5.418;2023-04-29T07:39:18;10.70;;;5.03;;
79728;SDS011;69218;52.132;5.418;2023-04-29T07:41:45;11.40;;;5.53;;
79728;SDS011;69218;52.132;5.418;2023-04-29T07:44:11;9.73;;;4.85;;
79728;SDS011;69218;52.132;5.418;2023-04-29T07:46:38;11.45;;;4.97;;
79728;SDS011;69218;52.132;5.418;2023-04-29T07:49:05;11.52;;;5.15;;
79728;SDS011;69218;52.132;5.418;2023-04-29T07:51:32;12.70;;;4.75;;
79728;SDS011;69218;52.132;5.418;2023-04-29T07:53:58;9.98;;;5.07;;
79728;SDS011;69218;52.132;5.418;2023-04-29T07:56:25;8.73;;;5.03;;
79728;SDS011;69218;52.132;5.418;2023-04-29T07:58:51;9.52;;;5.00;;
79728;SDS011;69218;52.132;5.418;2023-04-29T08:01:18;10.68;;;4.25;;
79728;SDS011;69218;52.132;5.418;2023-04-29T08:03:44;11.52;;;4.60;;
79728;SDS011;69218;52.132;5.418;2023-04-29T08:06:11;11.10;;;4.63;;
79728;SDS011;69218;52.132;5.418;2023-04-29T08:08:38;9.63;;;4.40;;
79728;SDS011;69218;52.132;5.418;2023-04-29T08:11:04;9.75;;;4.82;;
79728;SDS011;69218;52.132;5.418;2023-04-29T08:13:31;9.77;;;4.53;;
79728;SDS011;69218;52.132;5.418;2023-04-29T08:15:58;9.15;;;4.32;;
79728;SDS011;69218;52.132;5.418;2023-04-29T08:18:24;11.73;;;4.75;;
79728;SDS011;69218;52.132;5.418;2023-04-29T08:20:51;7.30;;;3.92;;
79728;SDS011;69218;52.132;5.418;2023-04-29T08:23:18;9.48;;;4.40;;
79728;SDS011;69218;52.132;5.418;2023-04-29T08:25:44;7.90;;;4.43;;
79728;SDS011;69218;52.132;5.418;2023-04-29T08:28:11;9.85;;;4.20;;
79728;SDS011;69218;52.132;5.418;2023-04-29T08:30:41;7.75;;;4.22;;
79728;SDS011;69218;52.132;5.418;2023-04-29T08:33:07;9.88;;;4.40;;
79728;SDS011;69218;52.132;5.418;2023-04-29T08:35:34;7.47;;;4.25;;
79728;SDS011;69218;52.132;5.418;2023-04-29T08:38:04;9.88;;;4.10;;
79728;SDS011;69218;52.132;5.418;2023-04-29T08:40:35;10.48;;;4.45;;
79728;SDS011;69218;52.132;5.418;2023-04-29T08:43:08;10.45;;;4.18;;
79728;SDS011;69218;52.132;5.418;2023-04-29T08:45:35;12.73;;;4.32;;
79728;SDS011;69218;52.132;5.418;2023-04-29T08:48:02;9.13;;;4.07;;
79728;SDS011;69218;52.132;5.418;2023-04-29T08:50:30;10.23;;;4.70;;
79728;SDS011;69218;52.132;5.418;2023-04-29T08:52:57;7.82;;;4.15;;
79728;SDS011;69218;52.132;5.418;2023-04-29T08:55:24;9.00;;;4.00;;
79728;SDS011;69218;52.132;5.418;2023-04-29T08:57:51;7.15;;;3.85;;
79728;SDS011;69218;52.132;5.418;2023-04-29T09:00:20;8.15;;;4.00;;
79728;SDS011;69218;52.132;5.418;2023-04-29T09:02:48;8.35;;;4.10;;
79728;SDS011;69218;52.132;5.418;2023-04-29T09:07:43;8.68;;;4.18;;
79728;SDS011;69218;52.132;5.418;2023-04-29T09:10:11;9.82;;;4.18;;
79728;SDS011;69218;52.132;5.418;2023-04-29T09:12:38;7.82;;;3.88;;
79728;SDS011;69218;52.132;5.418;2023-04-29T09:15:07;8.52;;;3.88;;
79728;SDS011;69218;52.132;5.418;2023-04-29T09:17:44;9.30;;;4.13;;
79728;SDS011;69218;52.132;5.418;2023-04-29T09:20:30;9.50;;;4.25;;
79728;SDS011;69218;52.132;5.418;2023-04-29T09:23:01;10.23;;;4.07;;
79728;SDS011;69218;52.132;5.418;2023-04-29T09:25:29;8.45;;;3.90;;
79728;SDS011;69218;52.132;5.418;2023-04-29T09:27:56;9.38;;;4.15;;
79728;SDS011;69218;52.132;5.418;2023-04-29T09:30:23;9.50;;;4.10;;
79728;SDS011;69218;52.132;5.418;2023-04-29T09:33:02;7.80;;;3.67;;
79728;SDS011;69218;52.132;5.418;2023-04-29T09:35:31;11.43;;;4.38;;
79728;SDS011;69218;52.132;5.418;2023-04-29T09:38:10;8.43;;;4.65;;
79728;SDS011;69218;52.132;5.418;2023-04-29T09:40:41;10.50;;;4.40;;
79728;SDS011;69218;52.132;5.418;2023-04-29T09:43:24;6.55;;;3.60;;
79728;SDS011;69218;52.132;5.418;2023-04-29T09:45:51;7.85;;;4.05;;
79728;SDS011;69218;52.132;5.418;2023-04-29T09:48:18;8.13;;;3.65;;
79728;SDS011;69218;52.132;5.418;2023-04-29T09:50:44;7.68;;;3.83;;
79728;SDS011;69218;52.132;5.418;2023-04-29T09:53:27;8.00;;;3.75;;
79728;SDS011;69218;52.132;5.418;2023-04-29T09:55:59;6.22;;;3.63;;
79728;SDS011;69218;52.132;5.418;2023-04-29T09:58:28;6.70;;;3.63;;
79728;SDS011;69218;52.132;5.418;2023-04-29T10:00:59;7.03;;;3.10;;
79728;SDS011;69218;52.132;5.418;2023-04-29T10:03:32;7.88;;;3.55;;
79728;SDS011;69218;52.132;5.418;2023-04-29T10:06:01;6.43;;;3.22;;
79728;SDS011;69218;52.132;5.418;2023-04-29T10:08:28;8.35;;;3.28;;
79728;SDS011;69218;52.132;5.418;2023-04-29T10:11:02;6.70;;;3.55;;
79728;SDS011;69218;52.132;5.418;2023-04-29T10:13:29;7.40;;;3.70;;
79728;SDS011;69218;52.132;5.418;2023-04-29T10:18:44;7.85;;;3.83;;
79728;SDS011;69218;52.132;5.418;2023-04-29T10:21:17;7.90;;;3.33;;
79728;SDS011;69218;52.132;5.418;2023-04-29T10:23:50;7.07;;;3.85;;
79728;SDS011;69218;52.132;5.418;2023-04-29T10:26:19;7.60;;;3.22;;
79728;SDS011;69218;52.132;5.418;2023-04-29T10:28:46;6.45;;;3.42;;
79728;SDS011;69218;52.132;5.418;2023-04-29T10:31:16;5.65;;;3.45;;
79728;SDS011;69218;52.132;5.418;2023-04-29T10:33:45;11.27;;;3.63;;
79728;SDS011;69218;52.132;5.418;2023-04-29T10:36:13;7.85;;;3.33;;
79728;SDS011;69218;52.132;5.418;2023-04-29T10:38:42;6.60;;;3.30;;
79728;SDS011;69218;52.132;5.418;2023-04-29T10:41:22;6.40;;;3.65;;
79728;SDS011;69218;52.132;5.418;2023-04-29T10:43:52;6.72;;;3.15;;
79728;SDS011;69218;52.132;5.418;2023-04-29T10:48:48;5.15;;;3.33;;
79728;SDS011;69218;52.132;5.418;2023-04-29T10:51:26;6.57;;;3.22;;
79728;SDS011;69218;52.132;5.418;2023-04-29T10:53:58;6.78;;;3.50;;
79728;SDS011;69218;52.132;5.418;2023-04-29T10:56:40;6.25;;;3.63;;
79728;SDS011;69218;52.132;5.418;2023-04-29T10:59:16;7.45;;;3.30;;
79728;SDS011;69218;52.132;5.418;2023-04-29T11:01:47;6.50;;;3.50;;
79728;SDS011;69218;52.132;5.418;2023-04-29T11:04:18;5.55;;;3.17;;
79728;SDS011;69218;52.132;5.418;2023-04-29T11:11:56;7.15;;;3.50;;
79728;SDS011;69218;52.132;5.418;2023-04-29T11:14:24;6.28;;;2.72;;
79728;SDS011;69218;52.132;5.418;2023-04-29T11:17:17;6.10;;;3.05;;
79728;SDS011;69218;52.132;5.418;2023-04-29T11:19:49;6.03;;;2.80;;
79728;SDS011;69218;52.132;5.418;2023-04-29T11:24:48;4.53;;;2.67;;
79728;SDS011;69218;52.132;5.418;2023-04-29T11:27:19;4.65;;;2.80;;
79728;SDS011;69218;52.132;5.418;2023-04-29T11:29:52;6.28;;;3.05;;
79728;SDS011;69218;52.132;5.418;2023-04-29T11:32:27;5.53;;;3.03;;
79728;SDS011;69218;52.132;5.418;2023-04-29T11:35:06;7.38;;;3.15;;
79728;SDS011;69218;52.132;5.418;2023-04-29T11:37:43;8.20;;;3.67;;
79728;SDS011;69218;52.132;5.418;2023-04-29T11:40:15;9.90;;;3.20;;
79728;SDS011;69218;52.132;5.418;2023-04-29T11:42:47;7.30;;;3.03;;
79728;SDS011;69218;52.132;5.418;2023-04-29T11:45:16;7.85;;;3.30;;
79728;SDS011;69218;52.132;5.418;2023-04-29T11:47:43;6.20;;;3.45;;
79728;SDS011;69218;52.132;5.418;2023-04-29T11:50:11;6.45;;;3.35;;
79728;SDS011;69218;52.132;5.418;2023-04-29T11:52:40;6.60;;;3.30;;
79728;SDS011;69218;52.132;5.418;2023-04-29T11:55:07;9.00;;;3.63;;
79728;SDS011;69218;52.132;5.418;2023-04-29T11:57:41;6.50;;;3.75;;
79728;SDS011;69218;52.132;5.418;2023-04-29T12:00:08;6.38;;;3.45;;
79728;SDS011;69218;52.132;5.418;2023-04-29T12:02:42;6.55;;;3.33;;
79728;SDS011;69218;52.132;5.418;2023-04-29T12:05:13;7.45;;;3.53;;
79728;SDS011;69218;52.132;5.418;2023-04-29T12:07:44;8.80;;;3.95;;
79728;SDS011;69218;52.132;5.418;2023-04-29T12:10:11;5.95;;;3.30;;
79728;SDS011;69218;52.132;5.418;2023-04-29T12:12:43;7.32;;;3.80;;
79728;SDS011;69218;52.132;5.418;2023-04-29T12:15:12;7.32;;;3.30;;
79728;SDS011;69218;52.132;5.418;2023-04-29T12:17:39;7.32;;;3.55;;
79728;SDS011;69218;52.132;5.418;2023-04-29T12:22:43;7.63;;;3.13;;
79728;SDS011;69218;52.132;5.418;2023-04-29T12:25:09;9.18;;;4.07;;
79728;SDS011;69218;52.132;5.418;2023-04-29T12:27:41;7.93;;;4.10;;
79728;SDS011;69218;52.132;5.418;2023-04-29T12:30:10;8.70;;;4.05;;
79728;SDS011;69218;52.132;5.418;2023-04-29T12:32:38;6.38;;;3.97;;
79728;SDS011;69218;52.132;5.418;2023-04-29T12:35:05;5.97;;;3.33;;
79728;SDS011;69218;52.132;5.418;2023-04-29T12:37:34;6.05;;;3.53;;
79728;SDS011;69218;52.132;5.418;2023-04-29T12:40:01;7.53;;;3.92;;
79728;SDS011;69218;52.132;5.418;2023-04-29T12:42:31;7.32;;;3.63;;
79728;SDS011;69218;52.132;5.418;2023-04-29T12:45:04;8.13;;;3.95;;
79728;SDS011;69218;52.132;5.418;2023-04-29T12:47:34;5.93;;;3.85;;
79728;SDS011;69218;52.132;5.418;2023-04-29T12:50:51;5.68;;;3.33;;
79728;SDS011;69218;52.132;5.418;2023-04-29T12:53:50;10.30;;;3.53;;
79728;SDS011;69218;52.132;5.418;2023-04-29T12:56:25;8.45;;;3.47;;
79728;SDS011;69218;52.132;5.418;2023-04-29T13:01:51;8.85;;;3.95;;
79728;SDS011;69218;52.132;5.418;2023-04-29T13:04:35;6.10;;;3.40;;
79728;SDS011;69218;52.132;5.418;2023-04-29T13:07:11;7.22;;;3.53;;
79728;SDS011;69218;52.132;5.418;2023-04-29T13:09:59;6.47;;;3.30;;
79728;SDS011;69218;52.132;5.418;2023-04-29T13:29:11;6.28;;;3.42;;
79728;SDS011;69218;52.132;5.418;2023-04-29T13:31:44;6.55;;;3.60;;
79728;SDS011;69218;52.132;5.418;2023-04-29T13:49:02;6.47;;;3.75;;
79728;SDS011;69218;52.132;5.418;2023-04-29T13:52:14;6.55;;;3.13;;
79728;SDS011;69218;52.132;5.418;2023-04-29T13:54:44;6.72;;;3.75;;
79728;SDS011;69218;52.132;5.418;2023-04-29T13:57:38;5.65;;;2.88;;
79728;SDS011;69218;52.132;5.418;2023-04-29T14:00:11;6.05;;;3.67;;
79728;SDS011;69218;52.132;5.418;2023-04-29T14:03:10;7.43;;;3.30;;
79728;SDS011;69218;52.132;5.418;2023-04-29T14:05:41;7.55;;;3.67;;
79728;SDS011;69218;52.132;5.418;2023-04-29T14:08:15;6.65;;;3.50;;
79728;SDS011;69218;52.132;5.418;2023-04-29T14:13:30;9.63;;;3.80;;
79728;SDS011;69218;52.132;5.418;2023-04-29T14:19:28;7.90;;;3.60;;
79728;SDS011;69218;52.132;5.418;2023-04-29T14:52:32;5.47;;;3.00;;
79728;SDS011;69218;52.132;5.418;2023-04-29T15:00:34;6.43;;;2.63;;
79728;SDS011;69218;52.132;5.418;2023-04-29T15:03:03;5.28;;;2.40;;
79728;SDS011;69218;52.132;5.418;2023-04-29T15:05:30;5.60;;;2.20;;
79728;SDS011;69218;52.132;5.418;2023-04-29T15:07:57;6.25;;;2.90;;
79728;SDS011;69218;52.132;5.418;2023-04-29T15:12:58;4.85;;;2.50;;
79728;SDS011;69218;52.132;5.418;2023-04-29T15:15:32;4.93;;;2.42;;
79728;SDS011;69218;52.132;5.418;2023-04-29T15:17:58;6.20;;;2.63;;
79728;SDS011;69218;52.132;5.418;2023-04-29T15:20:25;5.68;;;2.95;;
79728;SDS011;69218;52.132;5.418;2023-04-29T15:22:52;5.25;;;3.00;;
79728;SDS011;69218;52.132;5.418;2023-04-29T15:25:19;6.20;;;2.80;;
79728;SDS011;69218;52.132;5.418;2023-04-29T15:27:49;5.25;;;2.05;;
79728;SDS011;69218;52.132;5.418;2023-04-29T15:30:16;6.40;;;3.00;;
79728;SDS011;69218;52.132;5.418;2023-04-29T15:32:42;6.35;;;2.67;;
79728;SDS011;69218;52.132;5.418;2023-04-29T15:35:09;5.43;;;2.70;;
79728;SDS011;69218;52.132;5.418;2023-04-29T15:37:38;5.25;;;2.50;;
79728;SDS011;69218;52.132;5.418;2023-04-29T15:40:05;5.25;;;2.53;;
79728;SDS011;69218;52.132;5.418;2023-04-29T15:42:33;6.57;;;2.50;;
79728;SDS011;69218;52.132;5.418;2023-04-29T15:44:59;5.03;;;2.40;;
79728;SDS011;69218;52.132;5.418;2023-04-29T15:47:26;4.47;;;2.25;;
79728;SDS011;69218;52.132;5.418;2023-04-29T15:49:53;4.80;;;2.42;;
79728;SDS011;69218;52.132;5.418;2023-04-29T15:54:48;5.50;;;2.30;;
79728;SDS011;69218;52.132;5.418;2023-04-29T15:57:15;4.95;;;2.85;;
79728;SDS011;69218;52.132;5.418;2023-04-29T15:59:41;5.10;;;2.38;;
79728;SDS011;69218;52.132;5.418;2023-04-29T16:02:08;4.70;;;2.72;;
79728;SDS011;69218;52.132;5.418;2023-04-29T16:04:37;4.72;;;2.63;;
79728;SDS011;69218;52.132;5.418;2023-04-29T16:07:08;5.60;;;2.72;;
79728;SDS011;69218;52.132;5.418;2023-04-29T16:09:35;5.97;;;2.42;;
79728;SDS011;69218;52.132;5.418;2023-04-29T16:12:02;5.63;;;2.10;;
79728;SDS011;69218;52.132;5.418;2023-04-29T16:14:28;5.13;;;2.60;;
79728;SDS011;69218;52.132;5.418;2023-04-29T16:16:55;6.07;;;2.63;;
79728;SDS011;69218;52.132;5.418;2023-04-29T16:19:22;5.68;;;2.40;;
79728;SDS011;69218;52.132;5.418;2023-04-29T16:21:48;3.78;;;2.15;;
79728;SDS011;69218;52.132;5.418;2023-04-29T16:24:14;5.32;;;2.38;;
79728;SDS011;69218;52.132;5.418;2023-04-29T16:26:41;4.80;;;2.22;;
79728;SDS011;69218;52.132;5.418;2023-04-29T16:29:08;4.95;;;2.53;;
79728;SDS011;69218;52.132;5.418;2023-04-29T16:31:37;4.57;;;2.03;;
79728;SDS011;69218;52.132;5.418;2023-04-29T16:34:04;5.30;;;2.10;;
79728;SDS011;69218;52.132;5.418;2023-04-29T16:36:31;3.85;;;1.60;;
79728;SDS011;69218;52.132;5.418;2023-04-29T16:38:57;3.22;;;1.33;;
79728;SDS011;69218;52.132;5.418;2023-04-29T16:41:24;2.70;;;1.50;;
79728;SDS011;69218;52.132;5.418;2023-04-29T16:43:54;2.40;;;1.20;;